Time;durP1;ratioP1;P1;durP2;ratioP2;P2;SDS_P1;SDS_P2;PMS_P1;PMS_P2;Temp;Humidity;BMP_temperature;BMP_pressure;BME280_temperature;BME280_humidity;BME280_pressure;Samples;Min_cycle;Max_cycle;Signal;HPM_P1;HPM_P2
2022/09/22 00:00:11;;;;;;;;;;;9.30;80.10;;;;;;5014221;28;19929;-67
2022/09/22 00:02:38;;;;;;;;;;;9.30;80.10;;;;;;5012962;28;19930;-66
2022/09/22 00:05:07;;;;;;;;;;;9.30;80.10;;;;;;5017374;28;19925;-66
2022/09/22 00:07:34;;;;;;;;;;;9.20;80.20;;;;;;5009186;28;19925;-67
2022/09/22 00:10:06;;;;;;;;;;;9.20;80.30;;;;;;5022940;28;19925;-67
2022/09/22 00:12:34;;;;;;;;;;;9.20;80.30;;;;;;5019726;28;19938;-67
2022/09/22 00:15:02;;;;;;;;;;;9.20;80.40;;;;;;5019095;28;20383;-68
2022/09/22 00:17:35;;;;;;;;;;;9.20;80.40;;;;;;5024362;28;19995;-67
2022/09/22 00:20:01;;;;;;;;;;;9.10;80.50;;;;;;5020105;28;20371;-67
2022/09/22 00:22:31;;;;;;;;;;;9.10;80.50;;;;;;5020075;28;19952;-66
2022/09/22 00:24:58;;;;;;;;;;;9.10;80.60;;;;;;5015563;28;19925;-66
2022/09/22 00:27:25;;;;;;;;;;;9.10;80.60;;;;;;5021259;28;20027;-67
2022/09/22 00:29:52;;;;;;;;;;;9.00;80.70;;;;;;5022682;28;19925;-65
2022/09/22 00:32:19;;;;;;;;;;;9.00;80.70;;;;;;5025905;28;19936;-67
2022/09/22 00:34:45;;;;;;;;;;;9.00;80.70;;;;;;5018420;28;19932;-67
2022/09/22 00:37:12;;;;;;;;;;;9.00;80.70;;;;;;5023127;28;19929;-67
2022/09/22 00:39:41;;;;;;;;;;;9.00;80.60;;;;;;5016728;28;20476;-67
2022/09/22 00:42:11;;;;;;;;;;;9.00;80.60;;;;;;5021004;28;19936;-67
2022/09/22 00:44:39;;;;;;;;;;;8.90;80.70;;;;;;5026266;28;19925;-66
2022/09/22 00:47:14;;;;;;;;;;;8.90;80.70;;;;;;5031646;28;20284;-66
2022/09/22 00:49:44;;;;;;;;;;;8.90;80.70;;;;;;5037354;28;19928;-66
2022/09/22 00:52:13;;;;;;;;;;;8.90;80.80;;;;;;5040467;28;19929;-66
2022/09/22 00:54:41;;;;;;;;;;;8.90;80.80;;;;;;5039039;28;19979;-66
2022/09/22 00:57:09;;;;;;;;;;;8.90;80.50;;;;;;5041920;28;20022;-65
2022/09/22 00:59:36;;;;;;;;;;;9.00;80.40;;;;;;5043003;28;20020;-67
2022/09/22 01:02:03;;;;;;;;;;;9.00;80.40;;;;;;5022971;28;19994;-68
2022/09/22 01:04:30;;;;;;;;;;;8.90;80.40;;;;;;5037882;28;20426;-67
2022/09/22 01:06:58;;;;;;;;;;;9.00;80.50;;;;;;5041975;28;19929;-67
2022/09/22 01:09:25;;;;;;;;;;;8.90;80.40;;;;;;5036390;28;19951;-65
2022/09/22 01:11:53;;;;;;;;;;;8.90;80.40;;;;;;5042060;28;20388;-67
2022/09/22 01:14:29;;;;;;;;;;;8.80;80.40;;;;;;5005065;28;19929;-67
2022/09/22 01:17:01;;;;;;;;;;;8.80;80.30;;;;;;5013079;28;20434;-67
2022/09/22 01:19:43;;;;;;;;;;;8.80;80.20;;;;;;5017205;28;19929;-68
2022/09/22 01:22:16;;;;;;;;;;;8.70;80.10;;;;;;5016148;28;20314;-66
2022/09/22 01:24:48;;;;;;;;;;;8.70;80.10;;;;;;5018940;28;19941;-67
2022/09/22 01:27:30;;;;;;;;;;;8.70;80.30;;;;;;5022680;28;19925;-67
2022/09/22 01:30:13;;;;;;;;;;;8.60;80.30;;;;;;5012571;28;19989;-66
2022/09/22 01:32:42;;;;;;;;;;;8.60;80.30;;;;;;5021208;28;20043;-66
2022/09/22 01:35:16;;;;;;;;;;;8.60;80.30;;;;;;5017389;28;19988;-66
2022/09/22 01:37:46;;;;;;;;;;;8.60;80.30;;;;;;5021257;28;19929;-66
2022/09/22 01:40:15;;;;;;;;;;;8.60;80.20;;;;;;5013638;28;19929;-66
2022/09/22 01:42:44;;;;;;;;;;;8.60;80.20;;;;;;5021273;28;19933;-67
2022/09/22 01:45:14;;;;;;;;;;;8.50;80.30;;;;;;5017551;28;20032;-66
2022/09/22 01:47:42;;;;;;;;;;;8.50;80.20;;;;;;5020630;28;19933;-68
2022/09/22 01:50:14;;;;;;;;;;;8.50;80.10;;;;;;5038826;28;19932;-65
2022/09/22 01:52:41;;;;;;;;;;;8.40;80.20;;;;;;5033754;28;19933;-66
2022/09/22 01:55:11;;;;;;;;;;;8.40;80.30;;;;;;5032676;28;19951;-65
2022/09/22 01:57:41;;;;;;;;;;;8.40;80.20;;;;;;5041200;28;19929;-66
2022/09/22 02:00:09;;;;;;;;;;;8.40;80.10;;;;;;5034524;28;19925;-65
2022/09/22 02:02:43;;;;;;;;;;;8.40;80.10;;;;;;5033976;28;19925;-67
2022/09/22 02:05:13;;;;;;;;;;;8.40;80.10;;;;;;5037653;28;20007;-68
2022/09/22 02:07:40;;;;;;;;;;;8.40;80.00;;;;;;5037376;28;20358;-67
2022/09/22 02:10:09;;;;;;;;;;;8.40;80.20;;;;;;5039915;28;19930;-66
2022/09/22 02:12:36;;;;;;;;;;;8.30;80.20;;;;;;5041681;28;19932;-65
2022/09/22 02:15:04;;;;;;;;;;;8.30;80.40;;;;;;5042024;28;20013;-66
2022/09/22 02:17:31;;;;;;;;;;;8.30;80.50;;;;;;5041782;28;19999;-65
2022/09/22 02:19:59;;;;;;;;;;;8.30;80.50;;;;;;5038801;28;19929;-65
2022/09/22 02:22:26;;;;;;;;;;;8.30;80.30;;;;;;5039181;28;19971;-67
2022/09/22 02:24:53;;;;;;;;;;;8.20;80.50;;;;;;5020947;28;20378;-66
2022/09/22 02:27:25;;;;;;;;;;;8.20;80.70;;;;;;5016760;28;19929;-66
2022/09/22 02:29:55;;;;;;;;;;;8.20;80.90;;;;;;5018430;28;20398;-67
2022/09/22 02:32:22;;;;;;;;;;;8.20;80.90;;;;;;5019558;28;19929;-65
2022/09/22 02:34:49;;;;;;;;;;;8.20;81.00;;;;;;5019811;28;19936;-67
2022/09/22 02:37:22;;;;;;;;;;;8.10;80.80;;;;;;5021388;28;19941;-65
2022/09/22 02:39:52;;;;;;;;;;;8.10;80.70;;;;;;5017920;28;19929;-66
2022/09/22 02:42:24;;;;;;;;;;;8.10;80.60;;;;;;5018596;28;20012;-67
2022/09/22 02:44:54;;;;;;;;;;;8.10;80.70;;;;;;5018038;28;19933;-67
2022/09/22 02:47:26;;;;;;;;;;;8.10;80.70;;;;;;5029559;28;19975;-66
2022/09/22 02:49:54;;;;;;;;;;;8.10;80.80;;;;;;5039455;28;19931;-67
2022/09/22 02:52:23;;;;;;;;;;;8.00;81.00;;;;;;5043556;28;20303;-65
2022/09/22 02:54:49;;;;;;;;;;;7.90;81.00;;;;;;5044974;28;19933;-65
2022/09/22 02:57:16;;;;;;;;;;;7.90;81.10;;;;;;5041043;28;19929;-65
2022/09/22 02:59:43;;;;;;;;;;;8.00;80.90;;;;;;5038663;28;19933;-66
2022/09/22 03:02:10;;;;;;;;;;;8.00;80.70;;;;;;5033942;28;19929;-67
2022/09/22 03:04:38;;;;;;;;;;;7.90;80.60;;;;;;5039403;28;19929;-65
2022/09/22 03:07:06;;;;;;;;;;;7.90;80.50;;;;;;5030006;28;20401;-67
2022/09/22 03:09:34;;;;;;;;;;;7.90;80.30;;;;;;5042620;28;20007;-67
2022/09/22 03:12:01;;;;;;;;;;;7.90;80.30;;;;;;5036245;28;19933;-67
2022/09/22 03:14:28;;;;;;;;;;;7.90;80.30;;;;;;5041284;28;19979;-65
2022/09/22 03:16:57;;;;;;;;;;;7.90;80.20;;;;;;5036233;28;19926;-66
2022/09/22 03:19:23;;;;;;;;;;;7.90;80.20;;;;;;5040198;28;19940;-66
2022/09/22 03:21:50;;;;;;;;;;;7.80;80.30;;;;;;5040432;28;19979;-66
2022/09/22 03:24:17;;;;;;;;;;;7.80;80.20;;;;;;5038518;28;19933;-66
2022/09/22 03:26:45;;;;;;;;;;;7.80;80.10;;;;;;5038318;28;19928;-66
2022/09/22 03:29:11;;;;;;;;;;;7.80;80.10;;;;;;5040869;28;20027;-66
2022/09/22 03:31:38;;;;;;;;;;;7.80;80.20;;;;;;5033144;28;20026;-65
2022/09/22 03:34:05;;;;;;;;;;;7.80;80.10;;;;;;5029096;28;19929;-66
2022/09/22 03:36:32;;;;;;;;;;;7.70;80.30;;;;;;5041340;28;20365;-66
2022/09/22 03:38:59;;;;;;;;;;;7.70;80.20;;;;;;5037630;28;20010;-66
2022/09/22 03:41:25;;;;;;;;;;;7.70;80.30;;;;;;5038666;28;19999;-66
2022/09/22 03:43:54;;;;;;;;;;;7.70;80.20;;;;;;5036751;28;20521;-64
2022/09/22 03:46:20;;;;;;;;;;;7.70;80.30;;;;;;5033939;28;19929;-67
2022/09/22 03:48:47;;;;;;;;;;;7.60;80.50;;;;;;5037255;28;20367;-65
2022/09/22 03:51:14;;;;;;;;;;;7.60;80.60;;;;;;5021509;28;19933;-67
2022/09/22 03:53:41;;;;;;;;;;;7.50;80.70;;;;;;5049541;28;20401;-65
2022/09/22 03:56:09;;;;;;;;;;;7.50;80.60;;;;;;5043902;28;19928;-65
2022/09/22 03:58:38;;;;;;;;;;;7.60;80.70;;;;;;5039964;28;20052;-66
2022/09/22 04:01:07;;;;;;;;;;;7.50;80.80;;;;;;5034517;28;19929;-66
2022/09/22 04:03:34;;;;;;;;;;;7.60;80.80;;;;;;5015190;28;19933;-66
2022/09/22 04:06:01;;;;;;;;;;;7.60;80.80;;;;;;5034835;28;20409;-67
2022/09/22 04:08:28;;;;;;;;;;;7.50;80.90;;;;;;5042034;28;19991;-67
2022/09/22 04:10:58;;;;;;;;;;;7.50;80.90;;;;;;5044031;28;19929;-67
2022/09/22 04:13:25;;;;;;;;;;;7.50;80.90;;;;;;5043123;28;19971;-66
2022/09/22 04:15:52;;;;;;;;;;;7.50;80.80;;;;;;5036585;28;19932;-65
2022/09/22 04:18:20;;;;;;;;;;;7.50;80.90;;;;;;5044543;28;20371;-65
2022/09/22 04:20:47;;;;;;;;;;;7.50;80.90;;;;;;5042826;28;20023;-67
2022/09/22 04:23:15;;;;;;;;;;;7.40;80.90;;;;;;5042060;28;20008;-66
2022/09/22 04:25:41;;;;;;;;;;;7.40;81.00;;;;;;5040238;28;19929;-66
2022/09/22 04:28:08;;;;;;;;;;;7.40;81.10;;;;;;5025902;28;19968;-67
2022/09/22 04:30:35;;;;;;;;;;;7.40;81.20;;;;;;5042491;28;19940;-66
2022/09/22 04:33:04;;;;;;;;;;;7.40;81.20;;;;;;5032787;28;19954;-66
2022/09/22 04:35:32;;;;;;;;;;;7.40;81.30;;;;;;5042783;28;20275;-66
2022/09/22 04:37:59;;;;;;;;;;;7.30;81.30;;;;;;5023095;28;19929;-66
2022/09/22 04:40:26;;;;;;;;;;;7.30;81.30;;;;;;5027250;28;19929;-66
2022/09/22 04:42:53;;;;;;;;;;;7.30;81.30;;;;;;5027423;28;19933;-67
2022/09/22 04:45:20;;;;;;;;;;;7.30;81.30;;;;;;5018223;28;19936;-65
2022/09/22 04:47:46;;;;;;;;;;;7.30;81.20;;;;;;5023913;28;19925;-66
2022/09/22 04:50:13;;;;;;;;;;;7.30;81.30;;;;;;5025459;28;19925;-66
2022/09/22 04:52:44;;;;;;;;;;;7.30;81.30;;;;;;5018100;28;19940;-66
2022/09/22 04:55:11;;;;;;;;;;;7.30;81.40;;;;;;5023149;28;19933;-65
2022/09/22 04:57:37;;;;;;;;;;;7.30;81.30;;;;;;5020916;28;19948;-65
2022/09/22 05:00:05;;;;;;;;;;;7.40;81.40;;;;;;5018512;28;20387;-67
2022/09/22 05:02:31;;;;;;;;;;;7.40;81.40;;;;;;5013481;28;19933;-65
2022/09/22 05:04:58;;;;;;;;;;;7.30;81.40;;;;;;5023371;28;19925;-66
2022/09/22 05:07:25;;;;;;;;;;;7.30;81.60;;;;;;5042747;28;19975;-66
2022/09/22 05:09:53;;;;;;;;;;;7.30;81.50;;;;;;5046738;28;19925;-65
2022/09/22 05:12:20;;;;;;;;;;;7.30;81.60;;;;;;5042809;28;19968;-66
2022/09/22 05:14:47;;;;;;;;;;;7.30;81.50;;;;;;5038557;28;19929;-64
2022/09/22 05:17:15;;;;;;;;;;;7.30;81.50;;;;;;5037353;28;19939;-66
2022/09/22 05:19:42;;;;;;;;;;;7.30;81.30;;;;;;5048083;28;20377;-65
2022/09/22 05:22:09;;;;;;;;;;;7.30;81.20;;;;;;5040921;28;19933;-67
2022/09/22 05:24:36;;;;;;;;;;;7.30;81.40;;;;;;5035453;28;20375;-66
2022/09/22 05:27:04;;;;;;;;;;;7.20;81.50;;;;;;5041694;28;20281;-64
2022/09/22 05:29:31;;;;;;;;;;;7.20;81.60;;;;;;5042423;28;19928;-65
2022/09/22 05:31:58;;;;;;;;;;;7.20;81.40;;;;;;5039501;28;19924;-66
2022/09/22 05:34:24;;;;;;;;;;;7.20;81.50;;;;;;5042889;28;19976;-66
2022/09/22 05:36:51;;;;;;;;;;;7.20;81.50;;;;;;5045438;28;19967;-66
2022/09/22 05:39:18;;;;;;;;;;;7.20;81.70;;;;;;5036316;28;19929;-66
2022/09/22 05:41:44;;;;;;;;;;;7.20;81.80;;;;;;5046442;28;19935;-66
2022/09/22 05:44:13;;;;;;;;;;;7.20;81.70;;;;;;5037322;28;19932;-66
2022/09/22 05:46:40;;;;;;;;;;;7.30;81.70;;;;;;5036728;28;19932;-66
2022/09/22 05:49:06;;;;;;;;;;;7.30;81.80;;;;;;5039653;28;20393;-65
2022/09/22 05:51:33;;;;;;;;;;;7.20;81.90;;;;;;5040071;28;20378;-65
2022/09/22 05:54:00;;;;;;;;;;;7.30;81.90;;;;;;5039846;28;19933;-67
2022/09/22 05:56:27;;;;;;;;;;;7.20;82.00;;;;;;5040930;28;19932;-67
2022/09/22 05:58:54;;;;;;;;;;;7.30;82.00;;;;;;5037921;28;19929;-67
2022/09/22 06:01:22;;;;;;;;;;;7.30;82.00;;;;;;5014417;28;19929;-66
2022/09/22 06:03:49;;;;;;;;;;;7.30;82.00;;;;;;5017988;28;19934;-64
2022/09/22 06:06:16;;;;;;;;;;;7.30;82.00;;;;;;5025597;28;20379;-66
2022/09/22 06:08:42;;;;;;;;;;;7.30;82.00;;;;;;5017680;28;20021;-67
2022/09/22 06:11:10;;;;;;;;;;;7.30;82.00;;;;;;5025186;28;19955;-65
2022/09/22 06:13:37;;;;;;;;;;;7.30;82.20;;;;;;5020292;28;20295;-67
2022/09/22 06:16:04;;;;;;;;;;;7.30;82.20;;;;;;5000891;28;20631;-68
2022/09/22 06:18:32;;;;;;;;;;;7.30;82.30;;;;;;5010575;28;19925;-66
2022/09/22 06:20:59;;;;;;;;;;;7.40;82.20;;;;;;5009037;28;19952;-66
2022/09/22 06:23:25;;;;;;;;;;;7.50;82.20;;;;;;5026386;28;20291;-66
2022/09/22 06:25:56;;;;;;;;;;;7.50;82.30;;;;;;5013442;28;19929;-66
2022/09/22 06:28:22;;;;;;;;;;;7.60;82.30;;;;;;5030673;28;19995;-66
2022/09/22 06:30:50;;;;;;;;;;;7.70;82.30;;;;;;5030983;28;19925;-66
2022/09/22 06:33:17;;;;;;;;;;;7.70;82.60;;;;;;5043302;28;20367;-66
2022/09/22 06:35:45;;;;;;;;;;;7.70;82.70;;;;;;5042032;28;19933;-66
2022/09/22 06:38:13;;;;;;;;;;;7.70;82.90;;;;;;5039807;28;20282;-66
2022/09/22 06:40:40;;;;;;;;;;;7.70;83.00;;;;;;5038275;28;19925;-65
2022/09/22 06:43:08;;;;;;;;;;;7.80;82.70;;;;;;5037186;28;20355;-63
2022/09/22 06:45:35;;;;;;;;;;;7.90;82.20;;;;;;5035092;28;19962;-66
2022/09/22 06:48:02;;;;;;;;;;;7.90;82.80;;;;;;5021569;28;20298;-65
2022/09/22 06:54:05;;;;;;;;;;;8.00;82.30;;;;;;5034038;28;20460;-66
2022/09/22 06:56:34;;;;;;;;;;;8.00;82.40;;;;;;5043844;28;19931;-64
2022/09/22 06:59:01;;;;;;;;;;;8.00;82.10;;;;;;5042000;28;20101;-66
2022/09/22 07:01:31;;;;;;;;;;;8.10;82.80;;;;;;5008819;28;19947;-64
2022/09/22 07:03:58;;;;;;;;;;;8.10;82.60;;;;;;5037953;28;20363;-66
2022/09/22 07:06:25;;;;;;;;;;;8.10;82.30;;;;;;5039858;28;20382;-64
2022/09/22 07:08:52;;;;;;;;;;;8.10;82.70;;;;;;5038369;28;19929;-64
2022/09/22 07:11:22;;;;;;;;;;;8.10;82.80;;;;;;5016925;28;19936;-64
2022/09/22 07:13:50;;;;;;;;;;;8.20;83.10;;;;;;5045223;28;19940;-65
2022/09/22 07:16:20;;;;;;;;;;;8.20;83.30;;;;;;5037039;28;20320;-65
2022/09/22 07:18:48;;;;;;;;;;;8.20;83.30;;;;;;5041625;28;19936;-65
2022/09/22 07:21:17;;;;;;;;;;;8.20;83.30;;;;;;5040808;28;19947;-65
2022/09/22 07:23:44;;;;;;;;;;;8.30;83.20;;;;;;5034569;28;19929;-66
2022/09/22 07:26:12;;;;;;;;;;;8.30;82.80;;;;;;5022214;28;19929;-65
2022/09/22 07:28:40;;;;;;;;;;;8.30;83.30;;;;;;5040058;28;20000;-65
2022/09/22 07:31:08;;;;;;;;;;;8.30;83.70;;;;;;5041189;28;19933;-64
2022/09/22 07:33:35;;;;;;;;;;;8.40;83.40;;;;;;5043814;28;19932;-65
2022/09/22 07:36:03;;;;;;;;;;;8.60;83.40;;;;;;5044574;28;20400;-64
2022/09/22 07:38:32;;;;;;;;;;;8.60;83.70;;;;;;5037966;28;19964;-65
2022/09/22 07:40:59;;;;;;;;;;;8.80;84.00;;;;;;5026764;28;19963;-66
2022/09/22 07:43:26;;;;;;;;;;;8.90;84.40;;;;;;5046861;28;19978;-63
2022/09/22 07:45:56;;;;;;;;;;;9.10;84.00;;;;;;5035932;28;20371;-65
2022/09/22 07:48:41;;;;;;;;;;;9.20;84.70;;;;;;5034905;28;19925;-65
2022/09/22 07:51:09;;;;;;;;;;;9.40;84.60;;;;;;5044879;28;19925;-64
2022/09/22 07:53:36;;;;;;;;;;;9.60;84.70;;;;;;5048447;28;20009;-66
2022/09/22 07:56:03;;;;;;;;;;;9.70;84.50;;;;;;5047004;28;19925;-65
2022/09/22 07:58:30;;;;;;;;;;;9.80;85.00;;;;;;5039390;28;20395;-66
2022/09/22 08:00:59;;;;;;;;;;;9.90;85.00;;;;;;5032815;28;19992;-66
2022/09/22 08:03:26;;;;;;;;;;;10.10;85.40;;;;;;5039534;28;19942;-65
2022/09/22 08:06:06;;;;;;;;;;;10.10;85.50;;;;;;5040810;28;20033;-66
2022/09/22 08:08:33;;;;;;;;;;;10.30;85.20;;;;;;5039947;28;19925;-65
2022/09/22 08:11:03;;;;;;;;;;;10.40;85.70;;;;;;5017216;28;19924;-66
2022/09/22 08:13:30;;;;;;;;;;;10.50;84.80;;;;;;5045390;28;19925;-65
2022/09/22 08:15:57;;;;;;;;;;;10.70;84.70;;;;;;5042307;28;19935;-66
2022/09/22 08:18:25;;;;;;;;;;;10.70;84.50;;;;;;5045934;28;19925;-65
2022/09/22 08:20:52;;;;;;;;;;;10.90;84.10;;;;;;5042558;28;19929;-65
2022/09/22 08:23:19;;;;;;;;;;;10.90;84.00;;;;;;5045097;28;19933;-65
2022/09/22 08:25:46;;;;;;;;;;;11.10;84.40;;;;;;5039354;28;19956;-64
2022/09/22 08:28:13;;;;;;;;;;;11.20;83.70;;;;;;5047677;28;19932;-66
2022/09/22 08:30:44;;;;;;;;;;;11.30;84.20;;;;;;5034782;28;19929;-66
2022/09/22 08:33:12;;;;;;;;;;;11.50;84.10;;;;;;5038193;28;20364;-65
2022/09/22 08:35:49;;;;;;;;;;;11.70;83.80;;;;;;5042556;28;20283;-66
2022/09/22 08:38:17;;;;;;;;;;;11.80;83.40;;;;;;5041605;28;19928;-66
2022/09/22 08:40:47;;;;;;;;;;;11.90;82.90;;;;;;5042234;28;20547;-66
2022/09/22 08:43:14;;;;;;;;;;;11.90;82.70;;;;;;5044212;28;19928;-65
2022/09/22 08:45:43;;;;;;;;;;;12.10;82.80;;;;;;5039584;28;20370;-66
2022/09/22 08:53:55;;;;;;;;;;;12.50;81.10;;;;;;5032586;28;19925;-66
2022/09/22 08:56:29;;;;;;;;;;;12.60;81.60;;;;;;5048886;28;20016;-65
2022/09/22 08:59:00;;;;;;;;;;;12.70;81.20;;;;;;5045064;28;19940;-68
2022/09/22 09:01:45;;;;;;;;;;;12.90;80.60;;;;;;5036368;28;19925;-66
2022/09/22 09:04:21;;;;;;;;;;;13.00;80.50;;;;;;5040519;28;20038;-65
2022/09/22 09:06:52;;;;;;;;;;;13.00;80.00;;;;;;5047831;28;19936;-66
2022/09/22 09:09:27;;;;;;;;;;;13.20;79.30;;;;;;5046946;28;19960;-66
2022/09/22 09:12:15;;;;;;;;;;;13.30;78.80;;;;;;5043708;28;19925;-66
2022/09/22 09:14:55;;;;;;;;;;;13.40;79.10;;;;;;5035386;28;20290;-64
2022/09/22 09:17:24;;;;;;;;;;;13.60;78.30;;;;;;5043780;28;19929;-65
2022/09/22 09:19:54;;;;;;;;;;;13.70;77.70;;;;;;5045654;28;19940;-66
2022/09/22 09:22:24;;;;;;;;;;;13.90;77.60;;;;;;5045315;28;19929;-64
2022/09/22 09:24:54;;;;;;;;;;;14.00;77.30;;;;;;5044904;28;19994;-66
2022/09/22 09:27:23;;;;;;;;;;;14.10;76.40;;;;;;5038520;28;19936;-66
2022/09/22 09:29:55;;;;;;;;;;;14.20;75.80;;;;;;5045324;28;19932;-66
2022/09/22 09:32:31;;;;;;;;;;;14.30;75.70;;;;;;5027428;28;19948;-66
2022/09/22 09:34:58;;;;;;;;;;;14.50;75.00;;;;;;5043095;28;19929;-67
2022/09/22 09:37:27;;;;;;;;;;;14.60;74.60;;;;;;5045093;28;20008;-66
2022/09/22 09:39:54;;;;;;;;;;;14.70;73.70;;;;;;5044140;28;19982;-65
2022/09/22 09:42:24;;;;;;;;;;;14.90;73.50;;;;;;5042274;28;19984;-66
2022/09/22 09:44:53;;;;;;;;;;;15.00;73.20;;;;;;5041380;28;19929;-66
2022/09/22 09:47:37;;;;;;;;;;;15.10;71.30;;;;;;5047398;28;19933;-65
2022/09/22 09:50:05;;;;;;;;;;;15.20;72.20;;;;;;5044579;28;19924;-65
2022/09/22 09:52:37;;;;;;;;;;;15.30;70.20;;;;;;5045033;28;19978;-65
2022/09/22 09:55:13;;;;;;;;;;;15.40;69.20;;;;;;5045044;28;19925;-65
2022/09/22 09:58:00;;;;;;;;;;;15.50;67.80;;;;;;5044241;28;19940;-66
2022/09/22 10:00:32;;;;;;;;;;;15.60;68.20;;;;;;5021878;28;20283;-67
2022/09/22 10:03:11;;;;;;;;;;;15.70;67.60;;;;;;5023470;28;19929;-66
2022/09/22 10:05:38;;;;;;;;;;;15.80;67.40;;;;;;5025810;28;19960;-66
2022/09/22 10:08:15;;;;;;;;;;;15.90;66.30;;;;;;5024978;28;20284;-65
2022/09/22 10:10:41;;;;;;;;;;;15.90;66.40;;;;;;5029713;28;19936;-65
2022/09/22 10:13:26;;;;;;;;;;;15.90;66.50;;;;;;5014810;28;20276;-66
2022/09/22 10:16:04;;;;;;;;;;;15.90;65.90;;;;;;5044559;28;19933;-65
2022/09/22 10:18:33;;;;;;;;;;;16.00;65.20;;;;;;5039567;28;19932;-66
2022/09/22 10:21:05;;;;;;;;;;;16.00;65.00;;;;;;5048303;28;20398;-66
2022/09/22 10:23:34;;;;;;;;;;;16.10;63.30;;;;;;5042285;28;20330;-67
2022/09/22 10:26:14;;;;;;;;;;;16.20;63.60;;;;;;5038747;28;19933;-67
2022/09/22 10:28:41;;;;;;;;;;;16.20;63.70;;;;;;5043449;28;19924;-66
2022/09/22 10:31:18;;;;;;;;;;;16.30;63.30;;;;;;5045177;28;19925;-66
2022/09/22 10:33:53;;;;;;;;;;;16.40;63.00;;;;;;5029943;28;19939;-66
2022/09/22 10:36:19;;;;;;;;;;;16.40;62.60;;;;;;5038855;28;19929;-67
2022/09/22 10:38:48;;;;;;;;;;;16.50;61.40;;;;;;5045740;28;19932;-67
2022/09/22 10:41:18;;;;;;;;;;;16.50;61.00;;;;;;5047430;28;19943;-66
2022/09/22 10:43:46;;;;;;;;;;;16.60;60.30;;;;;;5046681;28;19928;-67
2022/09/22 10:46:38;;;;;;;;;;;16.60;60.30;;;;;;5044993;28;19925;-66
2022/09/22 10:49:11;;;;;;;;;;;16.70;59.20;;;;;;5047132;28;20476;-67
2022/09/22 10:51:45;;;;;;;;;;;16.80;58.70;;;;;;5046256;28;19925;-66
2022/09/22 10:54:19;;;;;;;;;;;16.80;58.10;;;;;;5045537;28;19928;-65
2022/09/22 10:56:47;;;;;;;;;;;16.90;58.70;;;;;;5045357;28;20302;-65
2022/09/22 10:59:23;;;;;;;;;;;16.90;58.70;;;;;;5046931;28;19932;-64
2022/09/22 11:01:56;;;;;;;;;;;16.90;58.50;;;;;;5039424;28;19932;-66
2022/09/22 11:04:46;;;;;;;;;;;16.90;58.00;;;;;;5029063;28;19925;-67
2022/09/22 11:13:01;;;;;;;;;;;17.10;56.80;;;;;;5048317;28;19932;-67
2022/09/22 11:15:38;;;;;;;;;;;17.10;56.50;;;;;;5050877;28;19959;-67
2022/09/22 11:18:13;;;;;;;;;;;17.10;56.50;;;;;;5051606;28;19978;-68
2022/09/22 11:20:41;;;;;;;;;;;17.10;55.60;;;;;;5050035;28;19932;-69
2022/09/22 11:23:23;;;;;;;;;;;17.20;54.10;;;;;;5048226;28;20440;-68
2022/09/22 11:26:00;;;;;;;;;;;17.20;53.00;;;;;;5049247;28;19933;-67
2022/09/22 11:28:37;;;;;;;;;;;17.20;52.40;;;;;;5048685;28;19928;-66
2022/09/22 11:31:04;;;;;;;;;;;17.20;52.60;;;;;;5050332;28;19940;-68
2022/09/22 11:33:46;;;;;;;;;;;17.10;53.00;;;;;;5048769;28;19924;-68
2022/09/22 11:36:19;;;;;;;;;;;17.20;53.40;;;;;;5048589;28;20416;-68
2022/09/22 11:39:01;;;;;;;;;;;17.20;53.30;;;;;;5050360;28;19925;-69
2022/09/22 11:41:38;;;;;;;;;;;17.20;54.80;;;;;;5037499;28;20358;-68
2022/09/22 11:44:38;;;;;;;;;;;17.30;53.90;;;;;;5049652;28;19940;-67
2022/09/22 11:47:25;;;;;;;;;;;17.20;54.30;;;;;;4978047;28;19933;-66
2022/09/22 11:50:03;;;;;;;;;;;17.10;52.90;;;;;;5042731;28;19928;-67
2022/09/22 11:52:33;;;;;;;;;;;17.00;53.10;;;;;;5029476;28;20417;-67
2022/09/22 11:55:12;;;;;;;;;;;16.90;52.10;;;;;;5029931;28;19932;-67
2022/09/22 11:57:42;;;;;;;;;;;16.90;51.70;;;;;;5028720;28;19925;-67
2022/09/22 12:00:14;;;;;;;;;;;16.90;51.10;;;;;;5026037;28;20326;-68
2022/09/22 12:02:45;;;;;;;;;;;16.90;51.00;;;;;;5019998;28;20343;-66
2022/09/22 12:05:14;;;;;;;;;;;16.90;52.00;;;;;;5029226;28;19979;-66
2022/09/22 12:07:45;;;;;;;;;;;17.00;48.90;;;;;;5028825;28;19925;-67
2022/09/22 12:10:16;;;;;;;;;;;17.00;48.80;;;;;;5028774;28;19932;-67
2022/09/22 12:12:47;;;;;;;;;;;17.00;48.90;;;;;;5030604;28;19929;-68
2022/09/22 12:15:18;;;;;;;;;;;17.10;49.80;;;;;;5029295;28;19929;-68
2022/09/22 12:17:48;;;;;;;;;;;17.00;50.40;;;;;;5030165;28;19925;-67
2022/09/22 12:20:19;;;;;;;;;;;16.90;50.80;;;;;;5027713;28;19988;-68
2022/09/22 12:23:01;;;;;;;;;;;16.90;51.60;;;;;;5029766;28;19925;-68
2022/09/22 12:25:49;;;;;;;;;;;16.90;51.50;;;;;;5028428;28;19925;-68
2022/09/22 12:28:18;;;;;;;;;;;17.00;50.90;;;;;;5028316;28;20028;-69
2022/09/22 12:30:52;;;;;;;;;;;17.10;49.70;;;;;;5029134;28;19936;-67
2022/09/22 12:33:19;;;;;;;;;;;17.20;49.70;;;;;;5027669;28;19940;-69
2022/09/22 12:35:55;;;;;;;;;;;17.10;49.70;;;;;;5048279;28;19929;-67
2022/09/22 12:38:22;;;;;;;;;;;17.10;49.20;;;;;;5045777;28;19936;-68
2022/09/22 12:40:50;;;;;;;;;;;17.20;49.00;;;;;;5050871;28;19929;-67
2022/09/22 12:43:21;;;;;;;;;;;17.30;49.50;;;;;;5030678;28;19925;-69
2022/09/22 12:45:48;;;;;;;;;;;17.40;50.10;;;;;;5028875;28;19949;-68
2022/09/22 12:48:17;;;;;;;;;;;17.40;50.80;;;;;;5025194;28;19925;-68
2022/09/22 12:50:46;;;;;;;;;;;17.40;51.00;;;;;;5029234;28;20022;-67
2022/09/22 12:53:23;;;;;;;;;;;17.40;51.70;;;;;;5028084;28;19929;-68
2022/09/22 12:55:51;;;;;;;;;;;17.50;51.60;;;;;;5027760;28;19983;-68
2022/09/22 12:58:36;;;;;;;;;;;17.50;51.00;;;;;;5029983;28;19928;-67
2022/09/22 13:01:17;;;;;;;;;;;17.50;50.60;;;;;;5024412;28;19925;-67
2022/09/22 13:03:49;;;;;;;;;;;17.40;49.40;;;;;;5026928;28;19936;-68
2022/09/22 13:06:34;;;;;;;;;;;17.40;50.10;;;;;;5027206;28;19933;-68
2022/09/22 13:09:08;;;;;;;;;;;17.40;50.40;;;;;;5026172;28;19981;-68
2022/09/22 13:11:54;;;;;;;;;;;17.40;51.20;;;;;;5037539;28;19925;-68
2022/09/22 13:14:39;;;;;;;;;;;17.40;50.70;;;;;;5045996;28;19926;-68
2022/09/22 13:17:21;;;;;;;;;;;17.30;51.00;;;;;;5012610;28;19925;-68
2022/09/22 13:19:55;;;;;;;;;;;17.20;50.90;;;;;;5042871;28;19936;-69
2022/09/22 13:22:22;;;;;;;;;;;17.20;51.40;;;;;;5046721;28;19936;-68
2022/09/22 13:24:49;;;;;;;;;;;17.20;52.40;;;;;;5047829;28;19929;-68
2022/09/22 13:27:16;;;;;;;;;;;17.20;52.10;;;;;;5045918;28;19940;-69
2022/09/22 13:29:56;;;;;;;;;;;17.10;52.80;;;;;;5047059;28;19979;-69
2022/09/22 13:32:26;;;;;;;;;;;17.20;52.40;;;;;;5046491;28;19924;-69
2022/09/22 13:34:53;;;;;;;;;;;17.10;52.60;;;;;;5049470;28;19971;-71
2022/09/22 13:37:23;;;;;;;;;;;17.00;52.20;;;;;;5046776;28;19924;-67
2022/09/22 13:39:51;;;;;;;;;;;17.00;52.40;;;;;;5048020;28;19929;-67
2022/09/22 13:42:21;;;;;;;;;;;17.00;52.90;;;;;;5045997;28;19924;-66
2022/09/22 13:44:51;;;;;;;;;;;16.90;53.10;;;;;;5046508;28;19943;-65
2022/09/22 13:47:20;;;;;;;;;;;16.80;52.90;;;;;;5045466;28;19932;-66
2022/09/22 13:49:49;;;;;;;;;;;16.70;53.20;;;;;;5047104;28;19928;-67
2022/09/22 13:52:20;;;;;;;;;;;16.60;53.50;;;;;;5045620;28;20022;-67
2022/09/22 13:54:49;;;;;;;;;;;16.60;54.20;;;;;;5040937;28;19963;-65
2022/09/22 13:57:19;;;;;;;;;;;16.60;54.00;;;;;;5045855;28;19929;-64
2022/09/22 13:59:46;;;;;;;;;;;16.50;55.00;;;;;;5046369;28;20718;-66
2022/09/22 14:02:13;;;;;;;;;;;16.50;55.60;;;;;;5041149;28;19936;-64
2022/09/22 14:04:49;;;;;;;;;;;16.40;55.70;;;;;;5030425;28;19932;-64
2022/09/22 14:07:16;;;;;;;;;;;16.40;56.20;;;;;;5027078;28;19933;-65
2022/09/22 14:09:43;;;;;;;;;;;16.30;56.30;;;;;;5024937;28;19931;-66
2022/09/22 14:12:11;;;;;;;;;;;16.20;56.80;;;;;;5043926;28;19934;-65
2022/09/22 14:14:39;;;;;;;;;;;16.20;57.00;;;;;;5044770;28;19935;-64
2022/09/22 14:17:11;;;;;;;;;;;16.20;57.20;;;;;;5047014;28;19944;-65
2022/09/22 14:19:40;;;;;;;;;;;16.10;57.30;;;;;;5044091;28;20544;-64
2022/09/22 14:22:10;;;;;;;;;;;16.10;58.00;;;;;;5042969;28;19929;-64
2022/09/22 14:24:37;;;;;;;;;;;16.10;58.30;;;;;;5046529;28;19925;-64
2022/09/22 14:27:05;;;;;;;;;;;16.00;58.50;;;;;;5027198;28;19925;-67
2022/09/22 14:29:35;;;;;;;;;;;16.00;58.50;;;;;;5027437;28;19937;-66
2022/09/22 14:32:06;;;;;;;;;;;16.00;57.90;;;;;;5027442;28;20379;-65
2022/09/22 14:34:33;;;;;;;;;;;16.00;58.50;;;;;;5042530;28;19975;-64
2022/09/22 14:37:03;;;;;;;;;;;15.90;58.30;;;;;;5047873;28;19939;-65
2022/09/22 14:39:32;;;;;;;;;;;15.90;58.30;;;;;;5046393;28;19925;-65
2022/09/22 14:42:07;;;;;;;;;;;15.90;58.10;;;;;;5043813;28;20375;-66
2022/09/22 14:44:42;;;;;;;;;;;15.80;58.60;;;;;;5045292;28;19924;-65
2022/09/22 14:47:24;;;;;;;;;;;15.80;58.30;;;;;;5044094;28;21483;-65
2022/09/22 14:50:11;;;;;;;;;;;15.80;59.10;;;;;;5046690;28;19932;-66
2022/09/22 14:52:39;;;;;;;;;;;15.70;59.60;;;;;;5046044;28;20382;-65
2022/09/22 14:55:14;;;;;;;;;;;15.70;59.90;;;;;;5044709;28;20356;-65